sensor_id;sensor_type;location;lat;lon;timestamp;temperature;humidity
17423;DHT22;8829;47.932;7.810;2024-02-14T00:02:21;6.40;99.90
17423;DHT22;8829;47.932;7.810;2024-02-14T00:04:47;6.40;99.90
17423;DHT22;8829;47.932;7.810;2024-02-14T00:07:14;6.40;99.90
17423;DHT22;8829;47.932;7.810;2024-02-14T00:09:41;6.50;99.90
17423;DHT22;8829;47.932;7.810;2024-02-14T00:12:07;6.70;99.90
17423;DHT22;8829;47.932;7.810;2024-02-14T00:14:38;6.90;99.90
17423;DHT22;8829;47.932;7.810;2024-02-14T00:17:05;7.00;99.90
17423;DHT22;8829;47.932;7.810;2024-02-14T00:19:32;7.10;99.90
17423;DHT22;8829;47.932;7.810;2024-02-14T00:21:59;7.30;99.90
17423;DHT22;8829;47.932;7.810;2024-02-14T00:24:26;7.40;99.90
17423;DHT22;8829;47.932;7.810;2024-02-14T00:26:54;7.40;99.90
17423;DHT22;8829;47.932;7.810;2024-02-14T00:29:22;7.40;99.90
17423;DHT22;8829;47.932;7.810;2024-02-14T00:31:50;7.60;99.90
17423;DHT22;8829;47.932;7.810;2024-02-14T00:34:17;7.70;99.90
17423;DHT22;8829;47.932;7.810;2024-02-14T00:36:44;7.70;99.90
17423;DHT22;8829;47.932;7.810;2024-02-14T00:39:12;7.70;99.90
17423;DHT22;8829;47.932;7.810;2024-02-14T00:41:38;7.80;99.90
17423;DHT22;8829;47.932;7.810;2024-02-14T00:44:05;7.70;99.90
17423;DHT22;8829;47.932;7.810;2024-02-14T00:46:32;7.70;99.90
17423;DHT22;8829;47.932;7.810;2024-02-14T00:49:00;7.80;99.90
17423;DHT22;8829;47.932;7.810;2024-02-14T00:51:26;7.80;99.90
17423;DHT22;8829;47.932;7.810;2024-02-14T00:53:53;7.80;99.90
17423;DHT22;8829;47.932;7.810;2024-02-14T00:56:20;7.70;99.90
17423;DHT22;8829;47.932;7.810;2024-02-14T00:58:48;7.70;99.90
17423;DHT22;8829;47.932;7.810;2024-02-14T01:01:15;7.80;99.90
17423;DHT22;8829;47.932;7.810;2024-02-14T01:03:42;7.80;99.90
17423;DHT22;8829;47.932;7.810;2024-02-14T01:06:10;7.90;99.90
17423;DHT22;8829;47.932;7.810;2024-02-14T01:08:37;8.00;99.90
17423;DHT22;8829;47.932;7.810;2024-02-14T01:11:03;7.90;99.90
17423;DHT22;8829;47.932;7.810;2024-02-14T01:13:30;8.00;99.90
17423;DHT22;8829;47.932;7.810;2024-02-14T01:15:57;8.00;99.90
17423;DHT22;8829;47.932;7.810;2024-02-14T01:18:23;8.10;99.90
17423;DHT22;8829;47.932;7.810;2024-02-14T01:20:50;8.20;99.90
17423;DHT22;8829;47.932;7.810;2024-02-14T01:23:19;8.20;99.90
17423;DHT22;8829;47.932;7.810;2024-02-14T01:25:45;8.20;99.90
17423;DHT22;8829;47.932;7.810;2024-02-14T01:28:12;8.30;99.90
17423;DHT22;8829;47.932;7.810;2024-02-14T01:30:39;8.30;99.90
17423;DHT22;8829;47.932;7.810;2024-02-14T01:33:06;8.30;99.90
17423;DHT22;8829;47.932;7.810;2024-02-14T01:35:33;8.30;99.90
17423;DHT22;8829;47.932;7.810;2024-02-14T01:38:00;8.30;99.90
17423;DHT22;8829;47.932;7.810;2024-02-14T01:40:29;8.30;99.90
17423;DHT22;8829;47.932;7.810;2024-02-14T01:42:56;8.30;99.90
17423;DHT22;8829;47.932;7.810;2024-02-14T01:45:23;8.30;99.90
17423;DHT22;8829;47.932;7.810;2024-02-14T01:47:50;8.20;99.90
17423;DHT22;8829;47.932;7.810;2024-02-14T01:50:17;8.30;99.90
17423;DHT22;8829;47.932;7.810;2024-02-14T01:52:54;8.50;99.90
17423;DHT22;8829;47.932;7.810;2024-02-14T01:55:22;8.30;99.90
17423;DHT22;8829;47.932;7.810;2024-02-14T01:57:51;8.30;99.90
17423;DHT22;8829;47.932;7.810;2024-02-14T02:00:18;8.30;99.90
17423;DHT22;8829;47.932;7.810;2024-02-14T02:02:45;8.30;99.90
17423;DHT22;8829;47.932;7.810;2024-02-14T02:05:12;8.30;99.90
17423;DHT22;8829;47.932;7.810;2024-02-14T02:07:39;8.30;99.90
17423;DHT22;8829;47.932;7.810;2024-02-14T02:10:09;8.40;99.90
17423;DHT22;8829;47.932;7.810;2024-02-14T02:12:35;8.40;99.90
17423;DHT22;8829;47.932;7.810;2024-02-14T02:15:06;8.50;99.90
17423;DHT22;8829;47.932;7.810;2024-02-14T02:17:35;8.60;99.90
17423;DHT22;8829;47.932;7.810;2024-02-14T02:20:02;8.60;99.90
17423;DHT22;8829;47.932;7.810;2024-02-14T02:22:31;8.60;99.90
17423;DHT22;8829;47.932;7.810;2024-02-14T02:25:02;8.60;99.90
17423;DHT22;8829;47.932;7.810;2024-02-14T02:27:32;8.60;99.90
17423;DHT22;8829;47.932;7.810;2024-02-14T02:30:00;8.60;99.90
17423;DHT22;8829;47.932;7.810;2024-02-14T02:32:29;8.60;99.90
17423;DHT22;8829;47.932;7.810;2024-02-14T02:34:56;8.60;99.90
17423;DHT22;8829;47.932;7.810;2024-02-14T02:37:23;8.60;99.90
17423;DHT22;8829;47.932;7.810;2024-02-14T02:39:50;8.70;99.90
17423;DHT22;8829;47.932;7.810;2024-02-14T02:42:18;8.70;99.90
17423;DHT22;8829;47.932;7.810;2024-02-14T02:44:46;8.80;99.90
17423;DHT22;8829;47.932;7.810;2024-02-14T02:47:14;8.70;99.90
17423;DHT22;8829;47.932;7.810;2024-02-14T02:49:42;8.80;99.90
17423;DHT22;8829;47.932;7.810;2024-02-14T02:52:09;8.80;99.90
17423;DHT22;8829;47.932;7.810;2024-02-14T02:54:36;8.70;99.90
17423;DHT22;8829;47.932;7.810;2024-02-14T02:57:06;8.80;99.90
17423;DHT22;8829;47.932;7.810;2024-02-14T02:59:34;8.80;99.90
17423;DHT22;8829;47.932;7.810;2024-02-14T03:02:01;8.90;99.90
17423;DHT22;8829;47.932;7.810;2024-02-14T03:04:28;9.00;99.90
17423;DHT22;8829;47.932;7.810;2024-02-14T03:06:56;8.90;99.90
17423;DHT22;8829;47.932;7.810;2024-02-14T03:09:23;8.90;99.90
17423;DHT22;8829;47.932;7.810;2024-02-14T03:11:51;9.00;99.90
17423;DHT22;8829;47.932;7.810;2024-02-14T03:14:22;9.00;99.90
17423;DHT22;8829;47.932;7.810;2024-02-14T03:16:50;9.00;99.90
17423;DHT22;8829;47.932;7.810;2024-02-14T03:19:17;9.00;99.90
17423;DHT22;8829;47.932;7.810;2024-02-14T03:21:44;9.00;99.90
17423;DHT22;8829;47.932;7.810;2024-02-14T03:24:12;9.00;99.90
17423;DHT22;8829;47.932;7.810;2024-02-14T03:26:39;9.10;99.90
17423;DHT22;8829;47.932;7.810;2024-02-14T03:29:07;9.00;99.90
17423;DHT22;8829;47.932;7.810;2024-02-14T03:31:34;9.10;99.90
17423;DHT22;8829;47.932;7.810;2024-02-14T03:34:02;9.10;99.90
17423;DHT22;8829;47.932;7.810;2024-02-14T03:36:29;9.00;99.90
17423;DHT22;8829;47.932;7.810;2024-02-14T03:38:56;9.10;99.90
17423;DHT22;8829;47.932;7.810;2024-02-14T03:41:23;9.10;99.90
17423;DHT22;8829;47.932;7.810;2024-02-14T03:43:49;9.10;99.90
17423;DHT22;8829;47.932;7.810;2024-02-14T03:46:18;9.10;99.90
17423;DHT22;8829;47.932;7.810;2024-02-14T03:48:46;9.10;99.90
17423;DHT22;8829;47.932;7.810;2024-02-14T03:51:15;9.00;99.90
17423;DHT22;8829;47.932;7.810;2024-02-14T03:53:42;9.10;99.90
17423;DHT22;8829;47.932;7.810;2024-02-14T03:56:09;9.10;99.90
17423;DHT22;8829;47.932;7.810;2024-02-14T03:58:38;9.10;99.90
17423;DHT22;8829;47.932;7.810;2024-02-14T04:01:04;9.10;99.90
17423;DHT22;8829;47.932;7.810;2024-02-14T04:03:31;9.10;99.90
17423;DHT22;8829;47.932;7.810;2024-02-14T04:05:58;9.10;99.90
17423;DHT22;8829;47.932;7.810;2024-02-14T04:08:26;9.10;99.90
17423;DHT22;8829;47.932;7.810;2024-02-14T04:10:54;9.00;99.90
17423;DHT22;8829;47.932;7.810;2024-02-14T04:13:21;9.10;99.90
17423;DHT22;8829;47.932;7.810;2024-02-14T04:15:48;9.10;99.90
17423;DHT22;8829;47.932;7.810;2024-02-14T04:18:14;9.10;99.90
17423;DHT22;8829;47.932;7.810;2024-02-14T04:20:43;9.20;99.90
17423;DHT22;8829;47.932;7.810;2024-02-14T04:23:09;9.30;99.90
17423;DHT22;8829;47.932;7.810;2024-02-14T04:25:38;9.30;99.90
17423;DHT22;8829;47.932;7.810;2024-02-14T04:28:05;9.30;99.90
17423;DHT22;8829;47.932;7.810;2024-02-14T04:30:32;9.30;99.90
17423;DHT22;8829;47.932;7.810;2024-02-14T04:33:00;9.30;99.90
17423;DHT22;8829;47.932;7.810;2024-02-14T04:35:28;9.30;99.90
17423;DHT22;8829;47.932;7.810;2024-02-14T04:37:54;9.30;99.90
17423;DHT22;8829;47.932;7.810;2024-02-14T04:40:22;9.30;99.90
17423;DHT22;8829;47.932;7.810;2024-02-14T04:42:50;9.40;99.90
17423;DHT22;8829;47.932;7.810;2024-02-14T04:45:17;9.40;99.90
17423;DHT22;8829;47.932;7.810;2024-02-14T04:47:44;9.50;99.90
17423;DHT22;8829;47.932;7.810;2024-02-14T04:50:11;9.50;99.90
17423;DHT22;8829;47.932;7.810;2024-02-14T04:52:39;9.50;99.90
17423;DHT22;8829;47.932;7.810;2024-02-14T04:55:07;9.50;99.90
17423;DHT22;8829;47.932;7.810;2024-02-14T04:57:34;9.40;99.90
17423;DHT22;8829;47.932;7.810;2024-02-14T05:00:04;9.50;99.90
17423;DHT22;8829;47.932;7.810;2024-02-14T05:02:31;9.40;99.90
17423;DHT22;8829;47.932;7.810;2024-02-14T05:04:58;9.50;99.90
17423;DHT22;8829;47.932;7.810;2024-02-14T05:07:24;9.50;99.90
17423;DHT22;8829;47.932;7.810;2024-02-14T05:09:51;9.50;99.90
17423;DHT22;8829;47.932;7.810;2024-02-14T05:12:20;9.50;99.90
17423;DHT22;8829;47.932;7.810;2024-02-14T05:14:47;9.60;99.90
17423;DHT22;8829;47.932;7.810;2024-02-14T05:17:15;9.60;99.90
17423;DHT22;8829;47.932;7.810;2024-02-14T05:19:42;9.60;99.90
17423;DHT22;8829;47.932;7.810;2024-02-14T05:22:08;9.60;99.90
17423;DHT22;8829;47.932;7.810;2024-02-14T05:24:35;9.60;99.90
17423;DHT22;8829;47.932;7.810;2024-02-14T05:27:03;9.70;99.90
17423;DHT22;8829;47.932;7.810;2024-02-14T05:29:30;9.70;99.90
17423;DHT22;8829;47.932;7.810;2024-02-14T05:31:57;9.70;99.90
17423;DHT22;8829;47.932;7.810;2024-02-14T05:34:25;9.70;99.90
17423;DHT22;8829;47.932;7.810;2024-02-14T05:36:51;9.70;99.90
17423;DHT22;8829;47.932;7.810;2024-02-14T05:39:18;9.80;99.90
17423;DHT22;8829;47.932;7.810;2024-02-14T05:41:45;9.70;99.90
17423;DHT22;8829;47.932;7.810;2024-02-14T05:44:12;9.80;99.90
17423;DHT22;8829;47.932;7.810;2024-02-14T05:46:37;9.80;99.90
17423;DHT22;8829;47.932;7.810;2024-02-14T05:49:04;9.70;99.90
17423;DHT22;8829;47.932;7.810;2024-02-14T05:51:33;9.80;99.90
17423;DHT22;8829;47.932;7.810;2024-02-14T05:53:59;9.80;99.90
17423;DHT22;8829;47.932;7.810;2024-02-14T05:56:26;9.90;99.90
17423;DHT22;8829;47.932;7.810;2024-02-14T05:58:53;9.90;99.90
17423;DHT22;8829;47.932;7.810;2024-02-14T06:01:19;9.90;99.90
17423;DHT22;8829;47.932;7.810;2024-02-14T06:03:46;9.90;99.90
17423;DHT22;8829;47.932;7.810;2024-02-14T06:06:13;9.90;99.90
17423;DHT22;8829;47.932;7.810;2024-02-14T06:08:41;10.00;99.90
17423;DHT22;8829;47.932;7.810;2024-02-14T06:11:07;10.00;99.90
17423;DHT22;8829;47.932;7.810;2024-02-14T06:13:34;10.00;99.90
17423;DHT22;8829;47.932;7.810;2024-02-14T06:16:01;10.00;99.90
17423;DHT22;8829;47.932;7.810;2024-02-14T06:18:27;10.00;99.90
17423;DHT22;8829;47.932;7.810;2024-02-14T06:20:54;10.00;99.90
17423;DHT22;8829;47.932;7.810;2024-02-14T06:23:21;10.00;99.90
17423;DHT22;8829;47.932;7.810;2024-02-14T06:25:49;10.00;99.90
17423;DHT22;8829;47.932;7.810;2024-02-14T06:28:16;10.00;99.90
17423;DHT22;8829;47.932;7.810;2024-02-14T06:30:42;10.00;99.90
17423;DHT22;8829;47.932;7.810;2024-02-14T06:33:09;9.90;99.90
17423;DHT22;8829;47.932;7.810;2024-02-14T06:35:36;9.90;99.90
17423;DHT22;8829;47.932;7.810;2024-02-14T06:38:02;9.90;99.90
17423;DHT22;8829;47.932;7.810;2024-02-14T06:40:29;10.00;99.90
17423;DHT22;8829;47.932;7.810;2024-02-14T06:42:57;10.00;99.90
17423;DHT22;8829;47.932;7.810;2024-02-14T06:45:25;10.00;99.90
17423;DHT22;8829;47.932;7.810;2024-02-14T06:47:53;10.00;99.90
17423;DHT22;8829;47.932;7.810;2024-02-14T06:50:19;10.00;99.90
17423;DHT22;8829;47.932;7.810;2024-02-14T06:52:46;9.90;99.90
17423;DHT22;8829;47.932;7.810;2024-02-14T06:55:13;10.00;99.90
17423;DHT22;8829;47.932;7.810;2024-02-14T06:57:40;10.00;99.90
17423;DHT22;8829;47.932;7.810;2024-02-14T07:00:09;10.00;99.90
17423;DHT22;8829;47.932;7.810;2024-02-14T07:02:36;10.00;99.90
17423;DHT22;8829;47.932;7.810;2024-02-14T07:05:03;10.00;99.90
17423;DHT22;8829;47.932;7.810;2024-02-14T07:07:32;10.00;99.90
17423;DHT22;8829;47.932;7.810;2024-02-14T07:09:59;10.10;99.90
17423;DHT22;8829;47.932;7.810;2024-02-14T07:12:26;10.10;99.90
17423;DHT22;8829;47.932;7.810;2024-02-14T07:14:55;10.10;99.90
17423;DHT22;8829;47.932;7.810;2024-02-14T07:17:24;10.20;99.90
17423;DHT22;8829;47.932;7.810;2024-02-14T07:19:50;10.20;99.90
17423;DHT22;8829;47.932;7.810;2024-02-14T07:22:17;10.30;99.90
17423;DHT22;8829;47.932;7.810;2024-02-14T07:24:44;10.30;99.90
17423;DHT22;8829;47.932;7.810;2024-02-14T07:27:13;10.30;99.90
17423;DHT22;8829;47.932;7.810;2024-02-14T07:29:40;10.30;99.90
17423;DHT22;8829;47.932;7.810;2024-02-14T07:32:07;10.20;99.90
17423;DHT22;8829;47.932;7.810;2024-02-14T07:34:38;10.20;99.90
17423;DHT22;8829;47.932;7.810;2024-02-14T07:37:04;10.20;99.90
17423;DHT22;8829;47.932;7.810;2024-02-14T07:39:31;10.20;99.90
17423;DHT22;8829;47.932;7.810;2024-02-14T07:42:00;10.10;99.90
17423;DHT22;8829;47.932;7.810;2024-02-14T07:44:27;10.10;99.90
17423;DHT22;8829;47.932;7.810;2024-02-14T07:46:53;10.00;99.90
17423;DHT22;8829;47.932;7.810;2024-02-14T07:49:20;9.90;99.90
17423;DHT22;8829;47.932;7.810;2024-02-14T07:51:48;9.90;99.90
17423;DHT22;8829;47.932;7.810;2024-02-14T07:54:15;9.80;99.90
17423;DHT22;8829;47.932;7.810;2024-02-14T07:56:41;9.80;99.90
17423;DHT22;8829;47.932;7.810;2024-02-14T07:59:08;9.70;99.90
17423;DHT22;8829;47.932;7.810;2024-02-14T08:01:35;9.70;99.90
17423;DHT22;8829;47.932;7.810;2024-02-14T08:04:02;9.70;99.90
17423;DHT22;8829;47.932;7.810;2024-02-14T08:06:29;9.70;99.90
17423;DHT22;8829;47.932;7.810;2024-02-14T08:08:57;9.80;99.90
17423;DHT22;8829;47.932;7.810;2024-02-14T08:11:27;9.70;99.90
17423;DHT22;8829;47.932;7.810;2024-02-14T08:13:55;9.70;99.90
17423;DHT22;8829;47.932;7.810;2024-02-14T08:16:22;9.80;99.90
17423;DHT22;8829;47.932;7.810;2024-02-14T08:18:49;9.70;99.90
17423;DHT22;8829;47.932;7.810;2024-02-14T08:21:16;9.70;99.90
17423;DHT22;8829;47.932;7.810;2024-02-14T08:23:43;9.70;99.90
17423;DHT22;8829;47.932;7.810;2024-02-14T08:26:11;9.70;99.90
17423;DHT22;8829;47.932;7.810;2024-02-14T08:28:38;9.70;99.90
17423;DHT22;8829;47.932;7.810;2024-02-14T08:31:09;9.70;99.90
17423;DHT22;8829;47.932;7.810;2024-02-14T08:33:36;9.70;99.90
17423;DHT22;8829;47.932;7.810;2024-02-14T08:36:04;9.70;99.90
17423;DHT22;8829;47.932;7.810;2024-02-14T08:38:31;9.70;99.90
17423;DHT22;8829;47.932;7.810;2024-02-14T08:40:58;9.70;99.90
17423;DHT22;8829;47.932;7.810;2024-02-14T08:43:26;9.70;99.90
17423;DHT22;8829;47.932;7.810;2024-02-14T08:45:53;9.70;99.90
17423;DHT22;8829;47.932;7.810;2024-02-14T08:48:20;9.70;99.90
17423;DHT22;8829;47.932;7.810;2024-02-14T08:50:47;9.70;99.90
17423;DHT22;8829;47.932;7.810;2024-02-14T08:53:14;9.60;99.90
17423;DHT22;8829;47.932;7.810;2024-02-14T08:55:41;9.70;99.90
17423;DHT22;8829;47.932;7.810;2024-02-14T08:58:08;9.80;99.90
17423;DHT22;8829;47.932;7.810;2024-02-14T09:00:37;9.80;99.90
17423;DHT22;8829;47.932;7.810;2024-02-14T09:03:04;9.80;99.90
17423;DHT22;8829;47.932;7.810;2024-02-14T09:05:32;9.80;99.90
17423;DHT22;8829;47.932;7.810;2024-02-14T09:07:58;9.70;99.90
17423;DHT22;8829;47.932;7.810;2024-02-14T09:10:25;9.80;99.90
17423;DHT22;8829;47.932;7.810;2024-02-14T09:12:52;9.70;99.90
17423;DHT22;8829;47.932;7.810;2024-02-14T09:15:19;9.70;99.90
17423;DHT22;8829;47.932;7.810;2024-02-14T09:17:48;9.80;99.90
17423;DHT22;8829;47.932;7.810;2024-02-14T09:20:15;9.90;99.90
17423;DHT22;8829;47.932;7.810;2024-02-14T09:22:42;9.90;99.90
17423;DHT22;8829;47.932;7.810;2024-02-14T09:25:08;10.00;99.90
17423;DHT22;8829;47.932;7.810;2024-02-14T09:27:36;10.10;99.90
17423;DHT22;8829;47.932;7.810;2024-02-14T09:30:03;10.30;99.90
17423;DHT22;8829;47.932;7.810;2024-02-14T09:32:30;10.40;99.90
17423;DHT22;8829;47.932;7.810;2024-02-14T09:34:59;10.50;99.90
17423;DHT22;8829;47.932;7.810;2024-02-14T09:37:26;10.50;99.90
17423;DHT22;8829;47.932;7.810;2024-02-14T09:39:53;10.70;99.90
17423;DHT22;8829;47.932;7.810;2024-02-14T09:42:26;10.70;99.90
17423;DHT22;8829;47.932;7.810;2024-02-14T09:44:58;10.60;99.90
17423;DHT22;8829;47.932;7.810;2024-02-14T09:47:27;10.50;99.90
17423;DHT22;8829;47.932;7.810;2024-02-14T09:49:59;10.60;99.90
17423;DHT22;8829;47.932;7.810;2024-02-14T09:52:28;10.70;99.90
17423;DHT22;8829;47.932;7.810;2024-02-14T09:54:55;10.70;99.90
17423;DHT22;8829;47.932;7.810;2024-02-14T09:57:22;10.70;99.90
17423;DHT22;8829;47.932;7.810;2024-02-14T09:59:52;10.70;99.90
17423;DHT22;8829;47.932;7.810;2024-02-14T10:02:19;10.80;99.90
17423;DHT22;8829;47.932;7.810;2024-02-14T10:04:46;10.80;99.90
17423;DHT22;8829;47.932;7.810;2024-02-14T10:07:15;10.90;99.90
17423;DHT22;8829;47.932;7.810;2024-02-14T10:09:42;11.00;99.90
17423;DHT22;8829;47.932;7.810;2024-02-14T10:12:09;11.00;99.90
17423;DHT22;8829;47.932;7.810;2024-02-14T10:14:36;11.10;99.90
17423;DHT22;8829;47.932;7.810;2024-02-14T10:17:03;11.10;99.90
17423;DHT22;8829;47.932;7.810;2024-02-14T10:19:30;11.20;99.90
17423;DHT22;8829;47.932;7.810;2024-02-14T10:21:57;11.30;99.90
17423;DHT22;8829;47.932;7.810;2024-02-14T10:24:27;11.50;99.90
17423;DHT22;8829;47.932;7.810;2024-02-14T10:26:54;11.60;99.90
17423;DHT22;8829;47.932;7.810;2024-02-14T10:29:23;11.60;99.90
17423;DHT22;8829;47.932;7.810;2024-02-14T10:31:49;11.60;99.90
17423;DHT22;8829;47.932;7.810;2024-02-14T10:34:18;11.60;99.90
17423;DHT22;8829;47.932;7.810;2024-02-14T10:36:46;11.70;99.90
17423;DHT22;8829;47.932;7.810;2024-02-14T10:39:13;11.80;99.90
17423;DHT22;8829;47.932;7.810;2024-02-14T10:41:43;11.80;99.90
17423;DHT22;8829;47.932;7.810;2024-02-14T10:44:10;11.90;99.90
17423;DHT22;8829;47.932;7.810;2024-02-14T10:46:40;12.00;99.90
17423;DHT22;8829;47.932;7.810;2024-02-14T10:49:10;12.10;99.90
17423;DHT22;8829;47.932;7.810;2024-02-14T10:51:38;12.00;99.90
17423;DHT22;8829;47.932;7.810;2024-02-14T10:54:10;12.10;99.90
17423;DHT22;8829;47.932;7.810;2024-02-14T10:56:40;12.00;99.90
17423;DHT22;8829;47.932;7.810;2024-02-14T10:59:10;12.10;99.90
17423;DHT22;8829;47.932;7.810;2024-02-14T11:01:39;12.10;99.90
17423;DHT22;8829;47.932;7.810;2024-02-14T11:04:07;12.00;99.90
17423;DHT22;8829;47.932;7.810;2024-02-14T11:06:44;12.00;99.90
17423;DHT22;8829;47.932;7.810;2024-02-14T11:09:12;12.10;99.90
17423;DHT22;8829;47.932;7.810;2024-02-14T11:11:41;12.10;99.90
17423;DHT22;8829;47.932;7.810;2024-02-14T11:14:09;12.10;99.90
17423;DHT22;8829;47.932;7.810;2024-02-14T11:16:38;12.10;99.90
17423;DHT22;8829;47.932;7.810;2024-02-14T11:19:06;12.10;99.90
17423;DHT22;8829;47.932;7.810;2024-02-14T11:21:36;12.10;99.90
17423;DHT22;8829;47.932;7.810;2024-02-14T11:24:07;12.20;99.90
17423;DHT22;8829;47.932;7.810;2024-02-14T11:26:40;12.10;99.90
17423;DHT22;8829;47.932;7.810;2024-02-14T11:29:07;12.20;99.90
17423;DHT22;8829;47.932;7.810;2024-02-14T11:31:36;12.30;99.90
17423;DHT22;8829;47.932;7.810;2024-02-14T11:34:04;12.20;99.90
17423;DHT22;8829;47.932;7.810;2024-02-14T11:36:31;12.20;99.90
17423;DHT22;8829;47.932;7.810;2024-02-14T11:38:58;12.30;99.90
17423;DHT22;8829;47.932;7.810;2024-02-14T11:41:27;12.30;99.90
17423;DHT22;8829;47.932;7.810;2024-02-14T11:43:54;12.30;99.90
17423;DHT22;8829;47.932;7.810;2024-02-14T11:46:20;12.30;99.90
17423;DHT22;8829;47.932;7.810;2024-02-14T11:48:48;12.20;99.90
17423;DHT22;8829;47.932;7.810;2024-02-14T11:51:15;12.10;99.90
17423;DHT22;8829;47.932;7.810;2024-02-14T11:53:42;12.10;99.90
17423;DHT22;8829;47.932;7.810;2024-02-14T11:56:09;12.10;99.90
17423;DHT22;8829;47.932;7.810;2024-02-14T11:58:37;12.20;99.90
17423;DHT22;8829;47.932;7.810;2024-02-14T12:01:04;12.20;99.90
17423;DHT22;8829;47.932;7.810;2024-02-14T12:03:32;12.30;99.90
17423;DHT22;8829;47.932;7.810;2024-02-14T12:06:02;12.20;99.90
17423;DHT22;8829;47.932;7.810;2024-02-14T12:08:30;12.20;99.90
17423;DHT22;8829;47.932;7.810;2024-02-14T12:10:56;12.20;99.90
17423;DHT22;8829;47.932;7.810;2024-02-14T12:13:24;12.20;99.90
17423;DHT22;8829;47.932;7.810;2024-02-14T12:15:51;12.20;99.90
17423;DHT22;8829;47.932;7.810;2024-02-14T12:18:19;12.30;99.90
17423;DHT22;8829;47.932;7.810;2024-02-14T12:20:46;12.40;99.90
17423;DHT22;8829;47.932;7.810;2024-02-14T12:23:17;12.50;99.90
17423;DHT22;8829;47.932;7.810;2024-02-14T12:25:44;12.70;99.90
17423;DHT22;8829;47.932;7.810;2024-02-14T12:28:14;12.80;99.90
17423;DHT22;8829;47.932;7.810;2024-02-14T12:30:45;13.00;99.90
17423;DHT22;8829;47.932;7.810;2024-02-14T12:33:14;13.00;99.90
17423;DHT22;8829;47.932;7.810;2024-02-14T12:35:42;13.10;99.90
17423;DHT22;8829;47.932;7.810;2024-02-14T12:38:09;13.10;99.90
17423;DHT22;8829;47.932;7.810;2024-02-14T12:40:38;13.20;99.90
17423;DHT22;8829;47.932;7.810;2024-02-14T12:43:07;13.10;99.90
17423;DHT22;8829;47.932;7.810;2024-02-14T12:45:34;13.00;99.90
17423;DHT22;8829;47.932;7.810;2024-02-14T12:48:00;12.80;99.90
17423;DHT22;8829;47.932;7.810;2024-02-14T12:50:27;12.70;99.90
17423;DHT22;8829;47.932;7.810;2024-02-14T12:52:54;12.70;99.90
17423;DHT22;8829;47.932;7.810;2024-02-14T12:55:21;12.60;99.90
17423;DHT22;8829;47.932;7.810;2024-02-14T12:57:50;12.60;99.90
17423;DHT22;8829;47.932;7.810;2024-02-14T13:00:17;12.50;99.90
17423;DHT22;8829;47.932;7.810;2024-02-14T13:02:44;12.50;99.90
17423;DHT22;8829;47.932;7.810;2024-02-14T13:05:11;12.60;99.90
17423;DHT22;8829;47.932;7.810;2024-02-14T13:07:38;12.50;99.90
17423;DHT22;8829;47.932;7.810;2024-02-14T13:10:06;12.50;99.90
17423;DHT22;8829;47.932;7.810;2024-02-14T13:12:33;12.50;99.90
17423;DHT22;8829;47.932;7.810;2024-02-14T13:15:01;12.50;99.90
17423;DHT22;8829;47.932;7.810;2024-02-14T13:17:28;12.50;99.90
17423;DHT22;8829;47.932;7.810;2024-02-14T13:19:55;12.50;99.90
17423;DHT22;8829;47.932;7.810;2024-02-14T13:22:22;12.50;99.90
17423;DHT22;8829;47.932;7.810;2024-02-14T13:24:49;12.50;99.90
17423;DHT22;8829;47.932;7.810;2024-02-14T13:27:15;12.40;99.90
17423;DHT22;8829;47.932;7.810;2024-02-14T13:29:42;12.40;99.90
17423;DHT22;8829;47.932;7.810;2024-02-14T13:32:11;12.40;99.90
17423;DHT22;8829;47.932;7.810;2024-02-14T13:34:37;12.40;99.90
17423;DHT22;8829;47.932;7.810;2024-02-14T13:37:04;12.50;99.90
17423;DHT22;8829;47.932;7.810;2024-02-14T13:39:31;12.50;99.90
17423;DHT22;8829;47.932;7.810;2024-02-14T13:41:58;12.50;99.90
17423;DHT22;8829;47.932;7.810;2024-02-14T13:44:26;12.60;99.90
17423;DHT22;8829;47.932;7.810;2024-02-14T13:46:53;12.80;99.90
17423;DHT22;8829;47.932;7.810;2024-02-14T13:49:21;12.80;99.90
17423;DHT22;8829;47.932;7.810;2024-02-14T13:51:48;12.80;99.90
17423;DHT22;8829;47.932;7.810;2024-02-14T13:54:15;12.80;99.90
17423;DHT22;8829;47.932;7.810;2024-02-14T13:56:42;12.70;99.90
17423;DHT22;8829;47.932;7.810;2024-02-14T13:59:10;12.80;99.90
17423;DHT22;8829;47.932;7.810;2024-02-14T14:01:36;12.90;99.90
17423;DHT22;8829;47.932;7.810;2024-02-14T14:04:03;13.00;99.90
17423;DHT22;8829;47.932;7.810;2024-02-14T14:06:32;13.10;99.90
17423;DHT22;8829;47.932;7.810;2024-02-14T14:08:59;13.20;99.90
17423;DHT22;8829;47.932;7.810;2024-02-14T14:11:26;13.20;99.90
17423;DHT22;8829;47.932;7.810;2024-02-14T14:13:52;13.20;99.90
17423;DHT22;8829;47.932;7.810;2024-02-14T14:16:19;13.20;99.90
17423;DHT22;8829;47.932;7.810;2024-02-14T14:18:48;13.20;99.90
17423;DHT22;8829;47.932;7.810;2024-02-14T14:21:14;13.10;99.90
17423;DHT22;8829;47.932;7.810;2024-02-14T14:23:43;13.10;99.90
17423;DHT22;8829;47.932;7.810;2024-02-14T14:26:10;13.00;99.90
17423;DHT22;8829;47.932;7.810;2024-02-14T14:28:38;13.00;99.90
17423;DHT22;8829;47.932;7.810;2024-02-14T14:31:05;13.10;99.90
17423;DHT22;8829;47.932;7.810;2024-02-14T14:33:32;13.10;99.90
17423;DHT22;8829;47.932;7.810;2024-02-14T14:35:59;13.10;99.90
17423;DHT22;8829;47.932;7.810;2024-02-14T14:38:25;13.00;99.90
17423;DHT22;8829;47.932;7.810;2024-02-14T14:40:53;12.90;99.90
17423;DHT22;8829;47.932;7.810;2024-02-14T14:43:21;13.00;99.90
17423;DHT22;8829;47.932;7.810;2024-02-14T14:45:48;13.00;99.90
17423;DHT22;8829;47.932;7.810;2024-02-14T14:48:14;12.90;99.90
17423;DHT22;8829;47.932;7.810;2024-02-14T14:50:42;12.90;99.90
17423;DHT22;8829;47.932;7.810;2024-02-14T14:53:09;12.90;99.90
17423;DHT22;8829;47.932;7.810;2024-02-14T14:55:55;12.90;99.90
17423;DHT22;8829;47.932;7.810;2024-02-14T14:58:23;12.90;99.90
17423;DHT22;8829;47.932;7.810;2024-02-14T15:00:53;13.00;99.90
17423;DHT22;8829;47.932;7.810;2024-02-14T15:03:21;12.90;99.90
17423;DHT22;8829;47.932;7.810;2024-02-14T15:05:48;12.90;99.90
17423;DHT22;8829;47.932;7.810;2024-02-14T15:08:15;12.80;99.90
17423;DHT22;8829;47.932;7.810;2024-02-14T15:10:43;12.80;99.90
17423;DHT22;8829;47.932;7.810;2024-02-14T15:13:11;12.80;99.90
17423;DHT22;8829;47.932;7.810;2024-02-14T15:15:38;12.80;99.90
17423;DHT22;8829;47.932;7.810;2024-02-14T15:18:07;12.80;99.90
17423;DHT22;8829;47.932;7.810;2024-02-14T15:20:33;12.80;99.90
17423;DHT22;8829;47.932;7.810;2024-02-14T15:23:01;12.70;99.90
17423;DHT22;8829;47.932;7.810;2024-02-14T15:25:28;12.70;99.90
17423;DHT22;8829;47.932;7.810;2024-02-14T15:27:55;12.70;99.90
17423;DHT22;8829;47.932;7.810;2024-02-14T15:30:24;12.70;99.90
17423;DHT22;8829;47.932;7.810;2024-02-14T15:33:08;12.70;99.90
17423;DHT22;8829;47.932;7.810;2024-02-14T15:35:48;12.70;99.90
17423;DHT22;8829;47.932;7.810;2024-02-14T15:38:15;12.60;99.90
17423;DHT22;8829;47.932;7.810;2024-02-14T15:40:44;12.70;99.90
17423;DHT22;8829;47.932;7.810;2024-02-14T15:43:11;12.60;99.90
17423;DHT22;8829;47.932;7.810;2024-02-14T15:45:39;12.70;99.90
17423;DHT22;8829;47.932;7.810;2024-02-14T15:48:06;12.70;99.90
17423;DHT22;8829;47.932;7.810;2024-02-14T15:50:34;12.70;99.90
17423;DHT22;8829;47.932;7.810;2024-02-14T15:53:01;12.70;99.90
17423;DHT22;8829;47.932;7.810;2024-02-14T15:55:28;12.70;99.90
17423;DHT22;8829;47.932;7.810;2024-02-14T15:57:55;12.60;99.90